Terminal Aerodrome Forecast
Issued by NWS

Home | Current Version | Previous Version | Text Only | Print | Product List | Glossary On
Versions: 1 2 3 4 5 6 7 8 9 10 11 12 13 14 15 16 17 18 19 20 21 22 23 24 25 26 27 28 29
013
FTUS46 KOTX 130526
TAFPUW
TAF
KPUW 130526Z 1306/1406 26011KT P6SM -RA SCT006 OVC050
      TEMPO 1306/1309 6SM -RA BKN006 OVC045
     FM130900 24014G22KT P6SM BKN050 OVC100
     FM131600 23017G25KT P6SM BKN250
     FM140300 24014G20KT 6SM -RA BKN021 OVC029=

USA.gov is the U.S. government's official web portal to all federal, state and local government web resources and services.